sensor_id;sensor_type;location;lat;lon;timestamp;temperature;humidity
8400;DHT22;4237;47.030;15.396;2022-08-21T13:28:42;20.00;99.90
8400;DHT22;4237;47.030;15.396;2022-08-21T13:31:15;27.20;99.90
8400;DHT22;4237;47.030;15.396;2022-08-21T13:33:43;26.70;99.90
8400;DHT22;4237;47.030;15.396;2022-08-21T13:36:15;26.40;99.90
8400;DHT22;4237;47.030;15.396;2022-08-21T13:38:45;26.30;99.90
8400;DHT22;4237;47.030;15.396;2022-08-21T13:41:20;26.00;99.90
8400;DHT22;4237;47.030;15.396;2022-08-21T13:43:56;26.00;99.90
8400;DHT22;4237;47.030;15.396;2022-08-21T13:46:22;25.80;99.90
8400;DHT22;4237;47.030;15.396;2022-08-21T13:48:54;25.70;99.90
8400;DHT22;4237;47.030;15.396;2022-08-21T13:51:23;25.50;99.90
8400;DHT22;4237;47.030;15.396;2022-08-21T13:53:53;25.40;99.90
8400;DHT22;4237;47.030;15.396;2022-08-21T13:56:41;25.40;99.90
8400;DHT22;4237;47.030;15.396;2022-08-21T13:59:03;25.50;99.90
8400;DHT22;4237;47.030;15.396;2022-08-21T14:01:36;25.20;99.90
8400;DHT22;4237;47.030;15.396;2022-08-21T14:04:14;25.20;99.90
8400;DHT22;4237;47.030;15.396;2022-08-21T14:06:38;24.90;99.90
8400;DHT22;4237;47.030;15.396;2022-08-21T14:09:13;24.90;99.90
8400;DHT22;4237;47.030;15.396;2022-08-21T14:11:42;25.00;99.90
8400;DHT22;4237;47.030;15.396;2022-08-21T14:14:23;25.20;99.90
8400;DHT22;4237;47.030;15.396;2022-08-21T14:17:16;25.20;99.90
8400;DHT22;4237;47.030;15.396;2022-08-21T14:19:44;25.30;99.90
8400;DHT22;4237;47.030;15.396;2022-08-21T14:22:40;25.40;99.90
8400;DHT22;4237;47.030;15.396;2022-08-21T14:25:15;25.50;99.90
8400;DHT22;4237;47.030;15.396;2022-08-21T14:27:56;25.60;99.90
8400;DHT22;4237;47.030;15.396;2022-08-21T14:30:30;25.90;99.90
8400;DHT22;4237;47.030;15.396;2022-08-21T14:32:59;26.30;99.90
8400;DHT22;4237;47.030;15.396;2022-08-21T14:35:29;26.60;99.90
8400;DHT22;4237;47.030;15.396;2022-08-21T14:37:58;26.70;99.90
8400;DHT22;4237;47.030;15.396;2022-08-21T14:40:27;26.70;99.90
8400;DHT22;4237;47.030;15.396;2022-08-21T14:42:57;27.10;99.90
8400;DHT22;4237;47.030;15.396;2022-08-21T14:45:28;28.30;99.90
8400;DHT22;4237;47.030;15.396;2022-08-21T14:47:58;29.50;99.90
8400;DHT22;4237;47.030;15.396;2022-08-21T14:50:27;30.80;98.80
8400;DHT22;4237;47.030;15.396;2022-08-21T14:52:55;31.10;97.30
8400;DHT22;4237;47.030;15.396;2022-08-21T14:55:24;29.70;97.80
8400;DHT22;4237;47.030;15.396;2022-08-21T14:57:55;29.10;99.00
8400;DHT22;4237;47.030;15.396;2022-08-21T15:00:26;28.40;99.90
8400;DHT22;4237;47.030;15.396;2022-08-21T15:02:54;28.40;99.90
8400;DHT22;4237;47.030;15.396;2022-08-21T15:05:23;28.20;99.90
8400;DHT22;4237;47.030;15.396;2022-08-21T15:07:51;28.00;99.90
8400;DHT22;4237;47.030;15.396;2022-08-21T15:10:20;28.10;99.90
8400;DHT22;4237;47.030;15.396;2022-08-21T15:12:48;27.60;99.90
8400;DHT22;4237;47.030;15.396;2022-08-21T15:15:17;26.80;99.90
8400;DHT22;4237;47.030;15.396;2022-08-21T15:17:45;26.50;99.90
8400;DHT22;4237;47.030;15.396;2022-08-21T15:20:15;26.30;99.90
8400;DHT22;4237;47.030;15.396;2022-08-21T15:22:43;25.90;99.90
8400;DHT22;4237;47.030;15.396;2022-08-21T15:25:12;25.60;99.90
8400;DHT22;4237;47.030;15.396;2022-08-21T15:27:41;25.40;99.90
8400;DHT22;4237;47.030;15.396;2022-08-21T15:30:11;25.20;99.90
8400;DHT22;4237;47.030;15.396;2022-08-21T15:32:40;25.10;99.90
8400;DHT22;4237;47.030;15.396;2022-08-21T15:35:09;25.10;99.90
8400;DHT22;4237;47.030;15.396;2022-08-21T15:37:38;25.10;99.90
8400;DHT22;4237;47.030;15.396;2022-08-21T15:40:08;25.40;99.90
8400;DHT22;4237;47.030;15.396;2022-08-21T15:42:38;25.40;99.90
8400;DHT22;4237;47.030;15.396;2022-08-21T15:45:09;25.20;99.90
8400;DHT22;4237;47.030;15.396;2022-08-21T15:47:42;25.10;99.90
8400;DHT22;4237;47.030;15.396;2022-08-21T15:50:12;25.20;99.90
8400;DHT22;4237;47.030;15.396;2022-08-21T15:52:41;25.10;99.90
8400;DHT22;4237;47.030;15.396;2022-08-21T15:55:10;25.00;99.90
8400;DHT22;4237;47.030;15.396;2022-08-21T15:57:48;25.20;99.90
8400;DHT22;4237;47.030;15.396;2022-08-21T16:00:15;25.10;99.90
8400;DHT22;4237;47.030;15.396;2022-08-21T16:02:45;25.10;99.90
8400;DHT22;4237;47.030;15.396;2022-08-21T16:05:16;24.80;99.90
8400;DHT22;4237;47.030;15.396;2022-08-21T16:07:47;24.80;99.90
8400;DHT22;4237;47.030;15.396;2022-08-21T16:10:18;24.70;99.90
8400;DHT22;4237;47.030;15.396;2022-08-21T16:12:58;24.80;99.90
8400;DHT22;4237;47.030;15.396;2022-08-21T16:15:28;24.80;99.90
8400;DHT22;4237;47.030;15.396;2022-08-21T16:17:57;24.70;99.90
8400;DHT22;4237;47.030;15.396;2022-08-21T16:20:28;24.50;99.90
8400;DHT22;4237;47.030;15.396;2022-08-21T16:22:58;24.40;99.90
8400;DHT22;4237;47.030;15.396;2022-08-21T16:25:28;24.50;99.90
8400;DHT22;4237;47.030;15.396;2022-08-21T16:27:58;24.50;99.90
8400;DHT22;4237;47.030;15.396;2022-08-21T16:30:29;24.50;99.90
8400;DHT22;4237;47.030;15.396;2022-08-21T16:33:03;24.70;99.90
8400;DHT22;4237;47.030;15.396;2022-08-21T16:35:32;24.70;99.90
8400;DHT22;4237;47.030;15.396;2022-08-21T16:38:01;24.70;99.90
8400;DHT22;4237;47.030;15.396;2022-08-21T16:40:30;24.70;99.90
8400;DHT22;4237;47.030;15.396;2022-08-21T16:43:00;24.60;99.90
8400;DHT22;4237;47.030;15.396;2022-08-21T16:45:29;24.60;99.90
8400;DHT22;4237;47.030;15.396;2022-08-21T16:47:58;24.60;99.90
8400;DHT22;4237;47.030;15.396;2022-08-21T16:50:26;24.60;99.90
8400;DHT22;4237;47.030;15.396;2022-08-21T16:52:55;24.40;99.90
8400;DHT22;4237;47.030;15.396;2022-08-21T16:55:24;24.30;99.90
8400;DHT22;4237;47.030;15.396;2022-08-21T16:57:53;24.00;99.90
8400;DHT22;4237;47.030;15.396;2022-08-21T17:00:22;23.80;99.90
8400;DHT22;4237;47.030;15.396;2022-08-21T17:02:53;23.70;99.90
8400;DHT22;4237;47.030;15.396;2022-08-21T17:05:22;23.60;99.90
8400;DHT22;4237;47.030;15.396;2022-08-21T17:07:51;23.50;99.90
8400;DHT22;4237;47.030;15.396;2022-08-21T17:10:20;23.40;99.90
8400;DHT22;4237;47.030;15.396;2022-08-21T17:12:52;23.40;99.90
8400;DHT22;4237;47.030;15.396;2022-08-21T17:15:25;23.40;99.90
8400;DHT22;4237;47.030;15.396;2022-08-21T17:17:54;23.40;99.90
8400;DHT22;4237;47.030;15.396;2022-08-21T17:20:23;23.20;99.90
8400;DHT22;4237;47.030;15.396;2022-08-21T17:22:52;22.90;99.90
8400;DHT22;4237;47.030;15.396;2022-08-21T17:25:21;22.90;99.90
8400;DHT22;4237;47.030;15.396;2022-08-21T17:27:52;22.80;99.90
8400;DHT22;4237;47.030;15.396;2022-08-21T17:30:21;22.70;99.90
8400;DHT22;4237;47.030;15.396;2022-08-21T17:32:52;22.50;99.90
8400;DHT22;4237;47.030;15.396;2022-08-21T17:35:21;22.50;99.90
8400;DHT22;4237;47.030;15.396;2022-08-21T17:37:51;22.40;99.90
8400;DHT22;4237;47.030;15.396;2022-08-21T17:40:20;22.30;99.90
8400;DHT22;4237;47.030;15.396;2022-08-21T17:42:49;22.30;99.90
8400;DHT22;4237;47.030;15.396;2022-08-21T17:45:18;22.10;99.90
8400;DHT22;4237;47.030;15.396;2022-08-21T17:47:47;22.00;99.90
8400;DHT22;4237;47.030;15.396;2022-08-21T20:14:26;21.90;99.90
